createdAt,value
2023-01-29T00:01:18.503Z,73.92
2023-01-29T00:03:52.374Z,74.70
2023-01-29T00:06:25.148Z,75.00
2023-01-29T00:08:58.553Z,75.48
2023-01-29T00:11:32.009Z,75.07
2023-01-29T00:14:05.210Z,74.85
2023-01-29T00:16:39.508Z,74.83
2023-01-29T00:19:12.348Z,74.35
2023-01-29T00:21:45.133Z,74.18
2023-01-29T00:24:17.982Z,74.18
2023-01-29T00:26:51.177Z,74.32
2023-01-29T00:29:23.984Z,74.30
2023-01-29T00:31:58.235Z,74.70
2023-01-29T00:34:31.098Z,73.95
2023-01-29T00:37:09.115Z,73.91
2023-01-29T00:39:47.869Z,74.48
2023-01-29T00:42:38.746Z,74.43
2023-01-29T00:45:11.897Z,75.50
2023-01-29T00:47:46.171Z,75.44
2023-01-29T00:50:19.638Z,75.39
2023-01-29T00:52:54.837Z,75.13
2023-01-29T00:55:28.000Z,75.16
2023-01-29T00:58:00.823Z,74.95
2023-01-29T01:00:33.959Z,75.38
2023-01-29T01:03:07.273Z,75.28
2023-01-29T01:05:42.647Z,75.01
2023-01-29T01:08:33.027Z,74.67
2023-01-29T01:11:06.557Z,73.55
2023-01-29T01:13:39.426Z,72.91
2023-01-29T01:16:12.817Z,73.87
2023-01-29T01:18:48.325Z,74.71
2023-01-29T01:21:21.067Z,75.55
2023-01-29T01:23:53.877Z,75.56
2023-01-29T01:26:26.639Z,75.36
2023-01-29T01:28:59.600Z,74.82
2023-01-29T01:31:32.635Z,74.76
2023-01-29T01:34:07.148Z,75.41
2023-01-29T01:36:41.361Z,75.40
2023-01-29T01:39:14.140Z,75.20
2023-01-29T01:41:47.250Z,75.61
2023-01-29T01:45:00.651Z,75.32
2023-01-29T01:47:39.418Z,74.89
2023-01-29T01:50:19.956Z,75.59
2023-01-29T01:52:56.849Z,75.80
2023-01-29T01:55:34.259Z,75.29
2023-01-29T01:58:11.402Z,74.83
2023-01-29T02:00:44.535Z,74.94
2023-01-29T02:03:38.338Z,75.02
2023-01-29T02:06:29.896Z,74.74
2023-01-29T02:09:24.220Z,74.47
2023-01-29T02:11:57.352Z,75.20
2023-01-29T02:14:31.948Z,74.99
2023-01-29T02:17:04.879Z,75.02
2023-01-29T02:19:46.700Z,75.27
2023-01-29T02:22:42.971Z,75.08
2023-01-29T02:25:49.043Z,75.39
2023-01-29T02:28:41.335Z,74.89
2023-01-29T02:31:21.042Z,75.27
2023-01-29T02:34:05.085Z,75.13
2023-01-29T02:36:46.200Z,74.95
2023-01-29T02:39:29.804Z,75.54
2023-01-29T02:42:12.737Z,75.04
2023-01-29T02:44:53.157Z,75.00
2023-01-29T02:47:31.898Z,74.59
2023-01-29T02:50:14.347Z,73.82
2023-01-29T02:52:56.867Z,73.93
2023-01-29T02:55:35.443Z,74.08
2023-01-29T02:58:12.787Z,74.10
2023-01-29T03:00:50.526Z,74.38
2023-01-29T03:03:30.268Z,74.03
2023-01-29T03:06:07.372Z,73.80
2023-01-29T03:08:45.547Z,74.12
2023-01-29T03:11:19.365Z,73.97
2023-01-29T03:13:55.892Z,73.31
2023-01-29T03:16:37.086Z,73.86
2023-01-29T03:19:16.254Z,74.38
2023-01-29T03:21:59.058Z,74.44
2023-01-29T03:24:59.675Z,74.45
2023-01-29T03:27:56.179Z,74.37
2023-01-29T03:30:49.174Z,74.25
2023-01-29T03:33:44.743Z,74.34
2023-01-29T03:36:21.445Z,75.15
2023-01-29T03:38:54.508Z,76.57
2023-01-29T03:41:32.393Z,76.81
2023-01-29T03:44:14.996Z,77.05
2023-01-29T03:46:54.557Z,76.76
2023-01-29T03:49:39.180Z,75.26
2023-01-29T03:52:21.299Z,74.63
2023-01-29T03:55:06.903Z,74.94
2023-01-29T03:57:45.539Z,74.52
2023-01-29T04:00:25.974Z,74.78
2023-01-29T04:03:13.738Z,73.38
2023-01-29T04:05:52.436Z,72.62
2023-01-29T04:08:35.200Z,72.87
2023-01-29T04:11:15.219Z,74.07
2023-01-29T04:13:48.521Z,74.87
2023-01-29T04:16:28.220Z,76.69
2023-01-29T04:19:19.887Z,77.24
2023-01-29T04:22:05.160Z,76.73
2023-01-29T04:24:38.842Z,76.42
2023-01-29T04:27:28.239Z,75.14
2023-01-29T04:30:08.778Z,77.52
2023-01-29T04:32:58.980Z,76.91
2023-01-29T04:35:40.241Z,76.83
2023-01-29T04:38:26.931Z,77.24
2023-01-29T04:41:06.593Z,76.58
2023-01-29T04:43:48.408Z,76.24
2023-01-29T04:46:28.208Z,75.80
2023-01-29T04:49:11.565Z,76.46
2023-01-29T04:51:52.433Z,76.85
2023-01-29T04:54:36.671Z,76.69
2023-01-29T04:57:17.216Z,76.12
2023-01-29T04:59:56.764Z,76.39
2023-01-29T05:02:31.242Z,76.95
2023-01-29T05:05:06.990Z,76.23
2023-01-29T05:07:41.653Z,75.05
2023-01-29T05:10:19.128Z,74.74
2023-01-29T05:12:56.808Z,75.85
2023-01-29T05:15:35.668Z,77.37
2023-01-29T05:18:10.208Z,77.43
2023-01-29T05:20:45.339Z,77.65
2023-01-29T05:23:19.321Z,77.33
2023-01-29T05:25:53.710Z,76.33
2023-01-29T05:28:25.463Z,75.82
2023-01-29T05:30:59.388Z,76.03
2023-01-29T05:33:32.759Z,76.43
2023-01-29T05:36:07.015Z,76.53
2023-01-29T05:38:40.985Z,76.25
2023-01-29T05:41:16.419Z,75.52
2023-01-29T05:43:49.298Z,75.13
2023-01-29T05:46:22.145Z,75.07
2023-01-29T05:48:54.961Z,74.57
2023-01-29T05:51:27.750Z,74.59
2023-01-29T05:54:00.699Z,75.58
2023-01-29T05:56:35.077Z,76.78
2023-01-29T05:59:08.562Z,75.81
2023-01-29T06:01:41.445Z,75.01
2023-01-29T06:04:14.277Z,75.08
2023-01-29T06:06:47.152Z,74.88
2023-01-29T06:09:20.027Z,74.72
2023-01-29T06:11:54.183Z,75.78
2023-01-29T06:14:27.201Z,75.79
2023-01-29T06:17:00.001Z,75.55
2023-01-29T06:19:32.807Z,75.20
2023-01-29T06:22:05.830Z,75.73
2023-01-29T06:24:38.633Z,75.15
2023-01-29T06:27:12.742Z,75.14
2023-01-29T06:29:45.685Z,76.11
2023-01-29T06:32:19.908Z,76.06
2023-01-29T06:34:53.237Z,75.34
2023-01-29T06:37:26.028Z,75.56
2023-01-29T06:39:59.069Z,75.50
2023-01-29T06:42:35.669Z,75.60
2023-01-29T06:45:09.771Z,76.46
2023-01-29T06:47:42.558Z,76.95
2023-01-29T06:50:15.769Z,76.85
2023-01-29T06:52:49.807Z,76.50
2023-01-29T06:55:22.602Z,76.09
2023-01-29T06:57:56.795Z,75.72
2023-01-29T07:00:31.444Z,75.69
2023-01-29T07:03:05.041Z,76.71
2023-01-29T07:05:38.114Z,77.34
2023-01-29T07:08:10.913Z,76.11
2023-01-29T07:10:43.718Z,75.31
2023-01-29T07:13:18.232Z,75.74
2023-01-29T07:15:51.063Z,75.65
2023-01-29T07:18:23.945Z,75.05
2023-01-29T07:20:57.187Z,76.15
2023-01-29T07:23:29.967Z,75.76
2023-01-29T07:26:04.289Z,75.32
2023-01-29T07:28:39.922Z,75.57
2023-01-29T07:31:15.445Z,75.13
2023-01-29T07:33:48.860Z,74.49
2023-01-29T07:36:21.689Z,75.22
2023-01-29T07:38:54.460Z,76.48
2023-01-29T07:41:27.225Z,76.41
2023-01-29T07:44:01.987Z,75.36
2023-01-29T07:46:34.793Z,75.84
2023-01-29T07:49:07.582Z,75.99
2023-01-29T07:51:40.415Z,75.10
2023-01-29T07:54:13.208Z,76.26
2023-01-29T07:56:46.334Z,76.50
2023-01-29T07:59:20.520Z,76.49
2023-01-29T08:01:53.416Z,75.41
2023-01-29T08:04:26.671Z,76.62
2023-01-29T08:06:59.530Z,76.57
2023-01-29T08:09:32.748Z,76.75
2023-01-29T08:12:06.266Z,75.91
2023-01-29T08:14:40.479Z,76.66
2023-01-29T08:17:13.415Z,76.56
2023-01-29T08:19:46.244Z,76.28
2023-01-29T08:22:19.370Z,75.81
2023-01-29T08:24:59.876Z,75.45
2023-01-29T08:27:33.290Z,75.96
2023-01-29T08:30:09.075Z,75.63
2023-01-29T08:32:42.003Z,75.54
2023-01-29T08:35:14.898Z,74.66
2023-01-29T08:37:53.932Z,75.26
2023-01-29T08:40:28.125Z,75.68
2023-01-29T08:43:02.578Z,74.80
2023-01-29T08:45:39.256Z,74.23
2023-01-29T08:48:12.481Z,74.65
2023-01-29T08:50:45.453Z,75.21
2023-01-29T08:53:19.857Z,76.08
2023-01-29T08:55:53.428Z,75.15
2023-01-29T08:58:26.395Z,75.07
2023-01-29T09:01:08.789Z,75.25
2023-01-29T09:03:43.751Z,74.49
2023-01-29T09:06:16.695Z,73.88
2023-01-29T09:08:49.814Z,73.68
2023-01-29T09:11:22.712Z,74.83
2023-01-29T09:13:55.493Z,74.74
2023-01-29T09:16:29.718Z,75.04
2023-01-29T09:19:02.515Z,75.13
2023-01-29T09:21:35.431Z,74.77
2023-01-29T09:24:10.855Z,74.83
2023-01-29T09:26:43.689Z,75.85
2023-01-29T09:29:16.681Z,74.75
2023-01-29T09:31:50.878Z,74.84
2023-01-29T09:34:23.684Z,74.93
2023-01-29T09:36:56.441Z,74.50
2023-01-29T09:39:29.619Z,74.78
2023-01-29T09:42:09.195Z,75.00
2023-01-29T09:44:55.403Z,74.40
2023-01-29T09:47:30.892Z,74.36
2023-01-29T09:50:08.914Z,74.31
2023-01-29T09:52:47.295Z,74.48
2023-01-29T09:55:26.001Z,74.39
2023-01-29T09:58:02.525Z,73.16
2023-01-29T10:00:41.589Z,74.00
2023-01-29T10:03:30.882Z,74.21
2023-01-29T10:06:22.190Z,73.76
2023-01-29T10:09:17.929Z,73.94
2023-01-29T10:12:03.350Z,75.06
2023-01-29T10:14:46.242Z,75.73
2023-01-29T10:17:36.706Z,76.02
2023-01-29T10:20:43.210Z,75.15
2023-01-29T10:23:22.748Z,75.41
2023-01-29T10:25:56.184Z,74.83
2023-01-29T10:28:35.807Z,74.87
2023-01-29T10:31:13.923Z,74.52
2023-01-29T10:34:02.101Z,73.96
2023-01-29T10:36:43.747Z,73.26
2023-01-29T10:39:19.156Z,73.50
2023-01-29T10:42:07.182Z,72.83
2023-01-29T10:44:51.595Z,72.70
2023-01-29T10:47:47.948Z,74.27
2023-01-29T10:50:33.413Z,74.23
2023-01-29T10:53:20.995Z,73.67
2023-01-29T10:56:07.916Z,74.33
2023-01-29T10:58:52.555Z,73.76
2023-01-29T11:01:26.748Z,73.81
2023-01-29T11:04:03.369Z,75.12
2023-01-29T11:06:37.725Z,72.56
2023-01-29T11:09:21.412Z,72.56
2023-01-29T11:11:59.180Z,72.61
2023-01-29T11:14:38.440Z,72.83
2023-01-29T11:17:16.734Z,72.77
2023-01-29T11:19:52.001Z,72.74
2023-01-29T11:22:26.840Z,72.94
2023-01-29T11:25:16.535Z,72.46
2023-01-29T11:27:51.329Z,71.95
2023-01-29T11:30:26.790Z,70.59
2023-01-29T11:33:08.748Z,72.26
2023-01-29T11:35:41.531Z,71.35
2023-01-29T11:38:23.675Z,71.60
2023-01-29T11:41:07.790Z,70.61
2023-01-29T11:43:40.606Z,71.89
2023-01-29T11:46:16.256Z,71.51
2023-01-29T11:48:52.057Z,71.74
2023-01-29T11:51:27.421Z,71.64
2023-01-29T11:54:03.300Z,72.21
2023-01-29T11:56:43.704Z,72.68
2023-01-29T11:59:27.295Z,72.29
2023-01-29T12:02:07.699Z,73.06
2023-01-29T12:04:41.335Z,72.97
2023-01-29T12:07:18.991Z,73.25
2023-01-29T12:09:55.515Z,72.45
2023-01-29T12:12:39.367Z,72.26
2023-01-29T12:15:22.151Z,73.04
2023-01-29T12:18:03.376Z,73.02
2023-01-29T12:20:39.848Z,73.39
2023-01-29T12:23:33.746Z,72.94
2023-01-29T12:26:10.691Z,73.32
2023-01-29T12:28:54.777Z,73.39
2023-01-29T12:31:37.961Z,72.79
2023-01-29T12:34:21.891Z,73.41
2023-01-29T12:37:00.732Z,72.87
2023-01-29T12:39:33.771Z,72.20
2023-01-29T12:42:17.830Z,71.37
2023-01-29T12:44:55.873Z,71.77
2023-01-29T12:47:34.696Z,71.64
2023-01-29T12:50:15.745Z,71.66
2023-01-29T12:52:54.067Z,71.78
2023-01-29T12:55:33.786Z,72.20
2023-01-29T12:58:13.687Z,72.27
2023-01-29T13:00:52.602Z,70.88
2023-01-29T13:03:30.998Z,71.08
2023-01-29T13:06:09.669Z,70.31
2023-01-29T13:08:46.448Z,71.11
2023-01-29T13:11:23.563Z,71.82
2023-01-29T13:14:01.712Z,71.14
2023-01-29T13:16:41.956Z,72.12
2023-01-29T13:19:24.282Z,72.41
2023-01-29T13:22:01.054Z,73.01
2023-01-29T13:24:40.120Z,72.65
2023-01-29T13:27:23.014Z,72.35
2023-01-29T13:29:57.334Z,71.36
2023-01-29T13:32:34.000Z,72.35
2023-01-29T13:35:15.258Z,71.38
2023-01-29T13:37:51.024Z,71.18
2023-01-29T13:40:26.951Z,70.56
2023-01-29T13:43:00.341Z,69.01
2023-01-29T13:45:37.134Z,70.17
2023-01-29T13:48:21.054Z,70.03
2023-01-29T13:50:56.349Z,70.16
2023-01-29T13:53:35.052Z,69.93
2023-01-29T13:56:42.996Z,71.21
2023-01-29T13:59:23.824Z,70.92
2023-01-29T14:02:05.185Z,70.74
2023-01-29T14:04:39.463Z,70.20
2023-01-29T14:08:00.404Z,68.57
2023-01-29T14:10:37.736Z,69.03
2023-01-29T14:13:28.983Z,68.26
2023-01-29T14:16:29.376Z,70.24
2023-01-29T14:19:03.693Z,70.45
2023-01-29T14:21:39.101Z,69.81
2023-01-29T14:24:19.645Z,71.12
2023-01-29T14:26:56.291Z,70.37
2023-01-29T14:29:35.408Z,70.65
2023-01-29T14:32:20.378Z,71.29
2023-01-29T14:35:00.820Z,71.89
2023-01-29T14:37:40.625Z,72.08
2023-01-29T14:40:22.838Z,72.05
2023-01-29T14:43:00.989Z,72.38
2023-01-29T14:45:35.140Z,72.56
2023-01-29T14:48:39.627Z,72.21
2023-01-29T14:51:15.603Z,71.93
2023-01-29T14:53:59.499Z,71.91
2023-01-29T14:56:36.537Z,71.51
2023-01-29T14:59:17.430Z,70.72
2023-01-29T15:01:55.748Z,71.15
2023-01-29T15:04:33.380Z,71.36
2023-01-29T15:07:16.557Z,71.78
2023-01-29T15:10:01.313Z,72.74
2023-01-29T15:12:47.199Z,72.84
2023-01-29T15:15:27.465Z,73.07
2023-01-29T15:18:03.124Z,73.31
2023-01-29T15:20:37.621Z,73.54
2023-01-29T15:23:26.641Z,73.24
2023-01-29T15:26:03.252Z,73.59
2023-01-29T15:28:36.974Z,73.81
2023-01-29T15:31:14.638Z,74.37
2023-01-29T15:33:51.893Z,74.11
2023-01-29T15:36:27.502Z,74.79
2023-01-29T15:39:17.253Z,74.57
2023-01-29T15:41:52.719Z,74.96
2023-01-29T15:44:25.720Z,76.03
2023-01-29T15:47:02.321Z,75.56
2023-01-29T15:49:37.426Z,76.16
2023-01-29T15:52:18.518Z,76.71
2023-01-29T15:54:52.366Z,77.31
2023-01-29T15:57:30.503Z,78.48
2023-01-29T16:00:04.697Z,78.73
2023-01-29T16:02:43.704Z,79.17
2023-01-29T16:05:19.665Z,78.88
2023-01-29T16:07:53.608Z,79.66
2023-01-29T16:10:29.273Z,80.14
2023-01-29T16:13:04.955Z,80.73
2023-01-29T16:15:40.279Z,80.93
2023-01-29T16:18:22.746Z,80.84
2023-01-29T16:20:57.294Z,80.65
2023-01-29T16:23:34.832Z,81.28
2023-01-29T16:26:10.332Z,81.94
2023-01-29T16:28:46.038Z,82.08
2023-01-29T16:31:24.702Z,81.62
2023-01-29T16:33:58.756Z,82.84
2023-01-29T16:36:31.741Z,83.04
2023-01-29T16:39:14.960Z,83.12
2023-01-29T16:42:20.352Z,83.82
2023-01-29T16:44:57.722Z,83.70
2023-01-29T16:47:34.218Z,83.43
2023-01-29T16:50:36.170Z,83.08
2023-01-29T16:53:14.165Z,82.44
2023-01-29T16:55:49.771Z,82.57
2023-01-29T16:58:25.940Z,82.47
2023-01-29T17:01:03.816Z,83.32
2023-01-29T17:03:40.276Z,82.91
2023-01-29T17:06:19.517Z,83.38
2023-01-29T17:08:53.314Z,83.23
2023-01-29T17:11:31.059Z,84.08
2023-01-29T17:14:06.922Z,83.78
2023-01-29T17:16:51.356Z,83.13
2023-01-29T17:19:25.554Z,83.82
2023-01-29T17:21:59.091Z,83.33
2023-01-29T17:24:32.555Z,83.46
2023-01-29T17:27:05.425Z,83.97
2023-01-29T17:29:38.163Z,83.72
2023-01-29T17:32:12.684Z,83.46
2023-01-29T17:34:46.306Z,83.49
2023-01-29T17:37:20.187Z,83.69
2023-01-29T17:39:52.951Z,83.69
2023-01-29T17:42:25.739Z,83.66
2023-01-29T17:44:58.448Z,84.46
2023-01-29T17:47:32.604Z,84.63
2023-01-29T17:50:17.533Z,83.36
2023-01-29T17:52:50.524Z,83.97
2023-01-29T17:55:23.397Z,84.33
2023-01-29T17:57:56.156Z,84.45
2023-01-29T18:00:28.959Z,84.06
2023-01-29T18:03:03.105Z,83.47
2023-01-29T18:05:36.071Z,83.43
2023-01-29T18:08:16.575Z,83.95
2023-01-29T18:10:49.314Z,83.79
2023-01-29T18:13:22.118Z,84.46
2023-01-29T18:15:55.585Z,84.44
2023-01-29T18:18:29.756Z,84.89
2023-01-29T18:21:02.504Z,84.37
2023-01-29T18:23:35.280Z,84.45
2023-01-29T18:26:08.399Z,84.14
2023-01-29T18:28:43.434Z,84.30
2023-01-29T18:31:16.215Z,84.91
2023-01-29T18:33:50.432Z,85.27
2023-01-29T18:36:23.467Z,85.54
2023-01-29T18:38:56.832Z,85.97
2023-01-29T18:41:29.669Z,86.38
2023-01-29T18:44:02.638Z,85.83
2023-01-29T18:46:35.433Z,85.46
2023-01-29T18:49:10.709Z,85.10
2023-01-29T18:51:43.468Z,85.31
2023-01-29T18:54:18.380Z,85.62
2023-01-29T18:57:13.843Z,85.58
2023-01-29T18:59:45.209Z,85.63
2023-01-29T19:02:19.602Z,86.56
2023-01-29T19:04:53.833Z,86.39
2023-01-29T19:07:26.729Z,86.34
2023-01-29T19:09:59.772Z,86.43
2023-01-29T19:12:33.777Z,86.91
2023-01-29T19:15:07.978Z,87.41
2023-01-29T19:17:40.724Z,88.08
2023-01-29T19:20:15.609Z,88.09
2023-01-29T19:22:48.696Z,89.84
2023-01-29T19:25:21.839Z,90.99
2023-01-29T19:27:54.685Z,91.81
2023-01-29T19:30:27.478Z,91.17
2023-01-29T19:33:00.420Z,91.52
2023-01-29T19:35:34.596Z,90.98
2023-01-29T19:38:07.508Z,91.20
2023-01-29T19:40:40.341Z,91.86
2023-01-29T19:43:15.267Z,92.14
2023-01-29T19:45:50.843Z,92.11
2023-01-29T19:48:23.940Z,91.74
2023-01-29T19:50:59.891Z,91.51
2023-01-29T19:53:32.734Z,92.80
2023-01-29T19:56:07.730Z,93.41
2023-01-29T19:58:40.585Z,94.30
2023-01-29T20:01:16.267Z,93.23
2023-01-29T20:03:50.539Z,91.94
2023-01-29T20:06:26.928Z,91.49
2023-01-29T20:09:02.177Z,91.58
2023-01-29T20:11:35.181Z,92.09
2023-01-29T20:14:07.921Z,93.21
2023-01-29T20:16:40.935Z,93.91
2023-01-29T20:19:17.900Z,94.72
2023-01-29T20:21:52.242Z,94.79
2023-01-29T20:24:26.396Z,93.20
2023-01-29T20:26:59.961Z,92.63
2023-01-29T20:29:32.826Z,92.37
2023-01-29T20:32:07.918Z,91.89
2023-01-29T20:34:41.321Z,92.18
2023-01-29T20:37:15.472Z,92.27
2023-01-29T20:39:48.423Z,92.61
2023-01-29T20:42:21.234Z,91.29
2023-01-29T20:44:54.056Z,92.54
2023-01-29T20:47:26.902Z,91.85
2023-01-29T20:49:59.802Z,92.02
2023-01-29T20:52:34.006Z,91.44
2023-01-29T20:55:11.088Z,91.91
2023-01-29T20:57:44.177Z,91.25
2023-01-29T21:00:37.222Z,91.75
2023-01-29T21:03:10.114Z,91.10
2023-01-29T21:05:43.061Z,90.43
2023-01-29T21:08:17.347Z,89.02
2023-01-29T21:10:50.610Z,88.73
2023-01-29T21:13:23.667Z,88.53
2023-01-29T21:15:56.519Z,88.76
2023-01-29T21:18:30.018Z,87.99
2023-01-29T21:21:02.822Z,88.75
2023-01-29T21:23:36.994Z,91.02
2023-01-29T21:26:09.892Z,92.50
2023-01-29T21:28:42.692Z,93.74
2023-01-29T21:31:16.931Z,95.07
2023-01-29T21:33:49.976Z,96.23
2023-01-29T21:36:22.755Z,97.66
2023-01-29T21:38:59.544Z,98.09
2023-01-29T21:41:46.277Z,98.50
2023-01-29T21:44:19.087Z,99.50
2023-01-29T21:46:51.893Z,100.00
2023-01-29T21:49:25.023Z,100.00
2023-01-29T21:51:57.919Z,100.00
2023-01-29T21:54:35.476Z,100.00
2023-01-29T21:57:12.845Z,100.00
2023-01-29T21:59:47.364Z,100.00
2023-01-29T22:02:27.658Z,100.00
2023-01-29T22:05:17.745Z,100.00
2023-01-29T22:07:51.521Z,100.00
2023-01-29T22:10:25.915Z,100.00
2023-01-29T22:13:00.810Z,100.00
2023-01-29T22:15:33.703Z,100.00
2023-01-29T22:18:06.811Z,100.00
2023-01-29T22:20:39.655Z,100.00
2023-01-29T22:23:12.753Z,100.00
2023-01-29T22:25:46.976Z,100.00
2023-01-29T22:28:19.926Z,100.00
2023-01-29T22:30:52.761Z,100.00
2023-01-29T22:33:25.596Z,100.00
2023-01-29T22:35:58.713Z,100.00
2023-01-29T22:38:32.002Z,100.00
2023-01-29T22:41:06.250Z,100.00
2023-01-29T22:43:40.953Z,100.00
2023-01-29T22:46:13.958Z,100.00
2023-01-29T22:48:46.816Z,99.74
2023-01-29T22:51:19.625Z,99.33
2023-01-29T22:53:55.600Z,98.57
2023-01-29T22:56:31.167Z,98.73
2023-01-29T22:59:04.074Z,97.81
2023-01-29T23:01:36.850Z,98.36
2023-01-29T23:04:09.650Z,97.94
2023-01-29T23:06:42.459Z,98.09
2023-01-29T23:09:15.297Z,97.63
2023-01-29T23:11:49.478Z,96.84
2023-01-29T23:14:22.345Z,96.51
2023-01-29T23:16:55.136Z,96.71
2023-01-29T23:19:28.102Z,96.32
2023-01-29T23:22:01.016Z,95.32
2023-01-29T23:24:33.905Z,95.24
2023-01-29T23:27:15.904Z,94.97
2023-01-29T23:29:50.101Z,94.95
2023-01-29T23:32:23.297Z,95.61
2023-01-29T23:34:56.070Z,95.67
2023-01-29T23:37:28.947Z,95.63
2023-01-29T23:40:01.724Z,95.71
2023-01-29T23:42:35.888Z,95.75
2023-01-29T23:45:09.751Z,95.28
2023-01-29T23:47:42.539Z,96.31
2023-01-29T23:50:15.791Z,96.05
2023-01-29T23:52:48.726Z,95.99
2023-01-29T23:55:21.518Z,96.44
2023-01-29T23:57:56.158Z,96.45
